Latest Weather Observations for Goulburn Airport

IDN60801

Issued at 10:05 am EST Saturday 2 August 2014 (issued every 30 minutes, with the page automatically refreshed every 10 minutes)

About weather observations | Map of weather stations | Latest weather observations for NSW | Other Formats
Station Details ID: 070330 Name: GOULBURN AIRPORT AWS Lat: -34.81 Lon: 149.73 Height: 640.0 m
Data from the previous 72 hours. | See also: Recent months at Goulburn Airport
Date/Time
EST
Temp
°C
App
Temp
°C
Dew
Point
Rel
Hum
%
Delta-T
°C
Wind Press
QNH
hPa
Press
MSL
hPa
Rain
since 9 am
mm
Dir
 
Spd
km/h
Gust
km/h
Spd
kts
Gust
kts
02/10:00am 4.8 -1.1 -0.8 67 2.2 WSW 20 30 11 16 1025.9 - 0.0
02/09:30am 3.9 -1.9 0.2 77 1.4 W 20 28 11 15 1025.6 - 0.0
02/09:00am 2.9 -2.7 0.1 82 1.1 W 19 28 10 15 1025.2 1026.0 3.4
02/08:30am 2.0 -3.8 -0.2 85 0.8 W 20 30 11 16 1024.6 - 3.4
02/08:00am 1.2 -5.9 -0.9 86 0.8 W 26 33 14 18 1024.0 - 3.4
02/07:30am 0.6 -6.5 -1.2 88 0.7 W 26 33 14 18 1023.4 - 3.4
02/07:29am 0.6 -6.5 -1.2 88 0.7 W 26 33 14 18 1023.4 - 3.4
02/07:00am 0.3 -6.0 -1.3 89 0.6 WNW 22 30 12 16 1023.0 - 3.4
02/06:47am 0.2 -5.8 -1.4 89 0.6 WNW 20 26 11 14 1022.7 - 3.4
02/06:30am 0.1 -6.3 -1.5 89 0.6 W 22 28 12 15 1022.2 - 3.4
02/06:00am -0.1 -6.1 -1.7 89 0.6 WNW 20 26 11 14 1021.2 1022.0 3.4
02/05:30am 0.6 -5.4 -1.2 88 0.7 WNW 20 26 11 14 1020.7 - 3.4
02/05:00am 0.5 -5.9 -1.4 87 0.7 W 22 32 12 17 1020.4 - 3.4
02/04:30am 0.9 -5.4 -1.2 86 0.8 WNW 22 30 12 16 1019.8 - 3.4
02/04:08am 1.1 -5.6 -1.0 86 0.8 WNW 24 35 13 19 1019.6 - 3.4
02/04:00am 1.2 -5.5 -0.9 86 0.8 WNW 24 33 13 18 1019.5 - 3.4
02/03:30am 1.5 -4.8 -0.7 85 0.8 WNW 22 32 12 17 1019.0 - 3.4
02/03:00am 1.7 -5.3 -0.7 84 0.9 WNW 26 37 14 20 1018.7 1019.4 3.4
02/02:55am 1.8 -6.0 -0.6 84 0.9 WNW 30 39 16 21 1018.6 - 3.4
02/02:30am 1.7 -6.4 -0.5 85 0.8 WNW 32 46 17 25 1017.7 - 3.4
02/02:00am 1.9 -6.2 -0.3 85 0.8 WNW 32 41 17 22 1017.5 - 3.4
02/01:30am 2.2 -5.5 -0.4 83 1.0 W 30 39 16 21 1017.3 - 3.4
02/01:00am 2.7 -4.6 -0.2 81 1.1 W 28 39 15 21 1017.4 - 3.4
02/12:34am 2.8 -6.2 0.0 82 1.1 W 37 57 20 31 1016.3 - 3.4
02/12:30am 2.7 -6.3 0.1 83 1.0 W 37 46 20 25 1016.4 - 3.4
02/12:00am 2.5 -7.3 0.1 84 0.9 WNW 41 54 22 29 1015.8 1016.5 3.4
 
Date/Time
EST
Temp
°C
App
Temp
°C
Dew
Point
Rel
Hum
%
Delta-T
°C
Wind Press
QNH
hPa
Press
MSL
hPa
Rain
since 9 am
mm
Dir
 
Spd
km/h
Gust
km/h
Spd
kts
Gust
kts
01/11:30pm 2.4 -7.0 0.1 85 0.9 WNW 39 52 21 28 1015.5 - 3.4
01/11:00pm 2.7 -7.0 0.6 86 0.8 WNW 41 50 22 27 1015.2 - 3.4
01/10:30pm 2.9 -5.6 0.6 85 0.9 W 35 46 19 25 1015.2 - 3.4
01/10:00pm 2.8 -6.9 0.4 84 0.9 W 41 59 22 32 1014.5 - 3.4
01/09:40pm 3.0 -5.9 0.6 84 0.9 W 37 52 20 28 1014.6 - 3.4
01/09:30pm 3.1 -5.5 0.5 83 1.0 W 35 54 19 29 1014.7 - 3.4
01/09:22pm 3.0 -5.5 0.7 85 0.9 W 35 54 19 29 1014.7 - 3.4
01/09:00pm 2.9 -5.2 0.8 86 0.8 WNW 33 44 18 24 1014.1 1014.7 3.4
01/08:30pm 2.5 -5.5 0.7 88 0.7 WNW 32 44 17 24 1013.9 - 3.4
01/08:15pm 2.4 -5.2 0.8 89 0.6 W 30 39 16 21 1014.2 - 3.4
01/08:00pm 2.3 -6.6 0.7 89 0.6 WNW 37 50 20 27 1013.8 - 3.4
01/07:52pm 2.2 -5.0 0.9 91 0.5 WNW 28 46 15 25 1013.9 - 3.4
01/07:48pm 2.0 -4.8 1.0 93 0.4 WNW 26 35 14 19 1013.9 - 3.4
01/07:30pm 1.7 -5.5 0.5 92 0.5 WNW 28 39 15 21 1013.5 - 3.4
01/07:11pm 1.8 -5.1 0.2 89 0.6 WSW 26 37 14 20 1013.4 - 2.8
01/07:00pm 3.0 -3.3 1.5 90 0.6 W 24 35 13 19 1013.1 - 2.4
01/06:47pm 2.5 -4.7 0.9 89 0.6 W 28 46 15 25 1013.1 - 2.4
01/06:31pm 2.5 -5.6 0.9 89 0.6 W 33 44 18 24 1012.9 - 2.4
01/06:30pm 2.5 -5.4 0.9 89 0.6 W 32 44 17 24 1012.9 - 2.4
01/06:00pm 2.2 -5.0 0.9 91 0.5 WNW 28 43 15 23 1012.6 1013.2 2.4
01/05:53pm 2.1 -4.3 0.9 92 0.5 WNW 24 32 13 17 1012.4 - 2.0
01/05:44pm 1.9 -4.5 0.9 93 0.4 W 24 33 13 18 1012.2 - 2.0
01/05:30pm 1.5 -5.7 0.5 93 0.4 WNW 28 44 15 24 1011.8 - 2.0
01/05:12pm 2.4 -5.5 0.9 90 0.6 W 32 50 17 27 1011.5 - 1.2
01/05:00pm 3.2 -4.9 1.3 87 0.8 W 33 46 18 25 1011.1 - 0.6
01/04:56pm 3.2 -4.3 1.4 88 0.7 W 30 44 16 24 1011.1 - 0.6
01/04:32pm 3.8 -3.7 1.0 82 1.1 NW 30 50 16 27 1010.8 - 0.2
01/04:30pm 4.3 -2.9 1.0 79 1.3 NW 28 39 15 21 1010.7 - 0.2
01/04:00pm 4.7 -2.3 1.7 81 1.2 NW 28 39 15 21 1009.7 - 0.2
01/03:30pm 4.8 -3.1 1.3 78 1.4 WNW 32 43 17 23 1009.5 - 0.0
01/03:00pm 4.9 -4.3 1.4 78 1.4 WNW 39 48 21 26 1009.0 1009.6 0.0
01/02:30pm 4.3 -6.1 -0.1 73 1.7 W 44 59 24 32 1009.0 - 0.0
01/02:10pm 7.1 -3.1 0.8 64 2.6 WNW 44 63 24 34 1008.7 - 0.0
01/02:00pm 6.8 -4.0 -0.6 59 3.0 WNW 46 61 25 33 1008.6 - 0.0
01/01:34pm 7.1 -4.5 -0.8 57 3.1 WNW 50 69 27 37 1008.5 - 0.0
01/01:30pm 7.4 -4.2 -0.8 56 3.3 WNW 50 65 27 35 1008.5 - 0.0
01/01:19pm 7.6 -4.5 -1.4 53 3.6 W 52 70 28 38 1008.1 - 0.0
01/01:00pm 7.7 -3.2 -1.3 53 3.6 WNW 46 61 25 33 1008.1 - 0.0
01/12:30pm 8.1 -3.2 -1.7 50 3.9 W 48 65 26 35 1008.1 - 0.0
01/12:00pm 7.2 -4.2 -2.2 51 3.6 WNW 48 61 26 33 1008.7 1009.2 0.0
01/11:31am 7.5 -2.4 -0.9 55 3.4 WNW 41 59 22 32 1008.8 - 0.0
01/11:30am 7.6 -2.6 -0.1 58 3.1 WNW 43 59 23 32 1008.9 - 0.0
01/11:00am 7.0 -3.0 -1.7 54 3.4 W 41 61 22 33 1009.0 - 0.0
01/10:30am 5.3 -4.2 -0.9 64 2.4 W 39 54 21 29 1009.1 - 0.0
01/10:00am 5.9 -3.4 0.5 68 2.2 W 39 57 21 31 1008.9 - 0.0
01/09:38am 4.8 -5.4 0.0 71 1.9 W 43 61 23 33 1008.8 - 0.0
01/09:30am 5.4 -4.9 0.4 70 2.0 W 44 61 24 33 1008.6 - 0.0
01/09:01am 4.0 -4.5 1.2 82 1.1 W 35 54 19 29 1008.4 - 0.0
01/09:00am 3.9 -4.9 1.1 82 1.1 W 37 54 20 29 1008.4 1008.9 0.0
01/08:35am 5.6 -3.5 1.9 77 1.6 W 39 57 21 31 1007.7 - 0.0
01/08:30am 5.2 -4.3 1.7 78 1.5 W 41 54 22 29 1007.7 - 0.0
01/08:27am 5.3 -4.6 1.8 78 1.5 W 43 54 23 29 1007.7 - 0.0
01/08:12am 5.1 -4.4 1.8 79 1.4 W 41 59 22 32 1007.6 - 0.0
01/08:00am 5.3 -3.0 2.3 81 1.3 W 35 50 19 27 1007.3 - 0.0
01/07:42am 5.3 -1.9 2.8 84 1.1 WNW 30 43 16 23 1007.0 - 0.0
01/07:30am 4.9 -2.0 2.6 85 1.0 WNW 28 39 15 21 1006.9 - 0.0
01/07:00am 4.3 -1.8 2.5 88 0.8 WNW 24 35 13 19 1006.7 - 0.0
01/06:30am 4.5 -2.5 2.2 85 1.0 W 28 41 15 22 1006.1 - 0.0
01/06:07am 4.9 -2.9 2.9 87 0.9 W 33 52 18 28 1005.9 - 0.0
01/06:00am 5.2 -2.6 2.9 85 1.0 W 33 50 18 27 1006.1 1006.6 0.0
01/05:36am 6.2 -2.3 3.2 81 1.3 W 37 57 20 31 1005.5 - 0.0
01/05:30am 6.3 -2.6 3.1 80 1.4 W 39 54 21 29 1005.4 - 0.0
01/05:00am 6.8 -1.3 3.4 79 1.5 WNW 35 48 19 26 1005.2 - 0.0
01/04:39am 6.8 -1.3 3.4 79 1.5 WNW 35 54 19 29 1004.8 - 0.0
01/04:30am 6.8 -0.9 3.2 78 1.6 WNW 33 46 18 25 1004.6 - 0.0
01/04:16am 6.8 -1.7 3.2 78 1.6 WNW 37 46 20 25 1004.5 - 0.0
01/04:00am 7.2 -0.5 3.3 76 1.7 WNW 33 50 18 27 1004.4 - 0.0
01/03:30am 7.5 -0.2 3.2 74 1.9 WNW 33 46 18 25 1004.3 - 0.0
01/03:00am 8.6 -0.4 2.4 65 2.7 WNW 39 50 21 27 1004.2 1004.7 0.0
01/02:31am 9.8 -0.9 -0.1 50 4.1 W 46 65 25 35 1004.1 - 0.0
01/02:30am 9.7 -1.1 -0.5 49 4.2 W 46 59 25 32 1004.1 - 0.0
01/02:00am 12.5 1.5 -1.8 37 5.9 WNW 46 67 25 36 1003.4 - 0.0
01/01:56am 12.6 1.6 -2.1 36 6.0 WNW 46 67 25 36 1003.2 - 0.0
01/01:55am 12.7 2.1 -2.0 36 6.0 WNW 44 57 24 31 1003.4 - 0.0
01/01:30am 13.4 2.0 -2.5 33 6.5 NW 48 67 26 36 1002.5 - 0.0
01/01:04am 13.1 2.4 -2.8 33 6.4 NW 44 63 24 34 1002.7 - 0.0
01/01:00am 13.1 2.4 -2.8 33 6.4 NW 44 61 24 33 1002.8 - 0.0
01/12:50am 13.3 2.6 -3.0 32 6.6 NW 44 65 24 35 1002.9 - 0.0
01/12:30am 13.2 2.1 -2.7 33 6.5 NW 46 63 25 34 1002.9 - 0.0
01/12:00am 13.3 1.5 -2.2 34 6.4 NW 50 72 27 39 1003.2 1003.7 0.0
 
Date/Time
EST
Temp
°C
App
Temp
°C
Dew
Point
Rel
Hum
%
Delta-T
°C
Wind Press
QNH
hPa
Press
MSL
hPa
Rain
since 9 am
mm
Dir
 
Spd
km/h
Gust
km/h
Spd
kts
Gust
kts
31/11:30pm 13.1 1.0 -1.6 36 6.1 NW 52 76 28 41 1003.8 - 0.0
31/11:00pm 13.4 1.4 -1.0 37 6.1 NW 52 72 28 39 1004.0 - 0.0
31/10:30pm 13.5 1.5 -0.9 37 6.1 NW 52 70 28 38 1004.1 - 0.0
31/10:01pm 13.8 3.4 -0.6 37 6.2 NW 44 70 24 38 1004.2 - 0.0
31/10:00pm 13.6 3.4 -0.4 38 6.0 NW 43 57 23 31 1004.2 - 0.0
31/09:30pm 14.1 2.5 -0.7 36 6.3 NW 50 76 27 41 1004.2 - 0.0
31/09:00pm 13.8 3.7 0.1 39 6.0 NW 43 74 23 40 1004.5 1005.5 0.0
31/08:43pm 13.8 3.2 0.5 40 5.8 NW 46 65 25 35 1004.2 - 0.0
31/08:30pm 13.8 3.6 0.8 41 5.7 NW 44 61 24 33 1004.4 - 0.0
31/08:00pm 13.8 3.6 1.1 42 5.6 NW 44 63 24 34 1004.5 - 0.0
31/07:30pm 13.5 2.7 1.8 45 5.3 NNW 48 67 26 36 1004.2 - 0.0
31/07:00pm 13.5 3.5 2.1 46 5.2 NNW 44 63 24 34 1004.2 - 0.0
31/06:42pm 13.6 3.8 2.5 47 5.1 NNW 43 63 23 34 1004.5 - 0.0
31/06:30pm 13.5 4.6 3.0 49 4.8 NW 39 56 21 30 1004.6 - 0.0
31/06:12pm 13.5 4.2 3.0 49 4.8 NW 41 59 22 32 1005.0 - 0.0
31/06:00pm 13.6 3.8 3.1 49 4.9 NW 44 61 24 33 1005.0 1005.9 0.0
31/05:30pm 13.7 4.4 2.9 48 5.0 NW 41 59 22 32 1005.3 - 0.0
31/05:01pm 14.1 4.2 3.0 47 5.1 NW 44 63 24 34 1005.4 - 0.0
31/05:00pm 14.1 3.9 3.0 47 5.1 NW 46 63 25 34 1005.4 - 0.0
31/04:30pm 14.9 4.6 2.8 44 5.6 NW 46 65 25 35 1005.8 - 0.0
31/04:00pm 15.6 4.0 1.7 39 6.3 NW 52 76 28 41 1006.0 - 0.0
31/03:30pm 16.2 3.8 1.5 37 6.7 NW 56 82 30 44 1006.3 - 0.0
31/03:01pm 16.6 5.8 1.9 37 6.8 NW 48 67 26 36 1006.4 - 0.0
31/03:00pm 16.4 5.2 1.7 37 6.8 NW 50 67 27 36 1006.3 1007.3 0.0
31/02:30pm 16.4 4.2 2.8 40 6.4 NW 56 76 30 41 1006.9 - 0.0
31/02:07pm 16.5 4.2 3.2 41 6.3 NW 57 76 31 41 1007.4 - 0.0
31/02:00pm 16.1 2.9 2.5 40 6.3 NW 61 76 33 41 1007.3 - 0.0
31/01:30pm 16.1 3.8 2.2 39 6.4 NW 56 78 30 42 1007.8 - 0.0
31/01:00pm 16.0 3.8 2.4 40 6.3 WNW 56 76 30 41 1008.5 - 0.0
31/12:30pm 15.7 3.3 2.5 41 6.1 WNW 57 76 31 41 1009.3 - 0.0
31/12:00pm 15.9 4.1 2.7 41 6.2 WNW 54 72 29 39 1009.8 1010.9 0.0
31/11:30am 15.7 4.0 3.2 43 5.9 WNW 54 72 29 39 1010.5 - 0.0
31/11:01am 15.2 4.9 2.4 42 5.9 WNW 46 65 25 35 1011.1 - 0.0
31/11:00am 15.4 5.5 2.6 42 5.9 WNW 44 61 24 33 1011.2 - 0.0
31/10:30am 14.7 3.6 2.6 44 5.6 WNW 50 70 27 38 1011.7 - 0.0
31/10:07am 14.3 3.6 2.5 45 5.4 WNW 48 69 26 37 1011.9 - 0.0
31/10:00am 14.1 3.5 3.0 47 5.1 NW 48 65 26 35 1011.9 - 0.0
31/09:45am 13.9 4.1 3.4 49 4.9 NW 44 63 24 34 1011.9 - 0.0
31/09:30am 13.8 3.6 3.3 49 4.9 NW 46 63 25 34 1012.1 - 0.0
31/09:03am 13.0 3.7 3.1 51 4.6 NW 41 61 22 33 1012.2 - 0.0
31/09:00am 12.8 3.9 3.2 52 4.4 NW 39 52 21 28 1012.3 1013.4 0.0
31/08:40am 12.4 3.9 3.4 54 4.2 NW 37 57 20 31 1012.5 - 0.0
31/08:30am 12.1 4.4 3.3 55 4.0 NW 33 48 18 26 1012.6 - 0.0
31/08:00am 11.1 3.6 3.2 58 3.6 NW 32 41 17 22 1012.6 - 0.0
31/07:30am 9.5 4.4 3.0 64 2.9 NNW 19 24 10 13 1012.7 - 0.0
31/07:00am 9.5 2.0 3.5 66 2.7 NW 32 39 17 21 1012.6 - 0.0
31/06:30am 9.4 1.9 3.4 66 2.7 NW 32 41 17 22 1012.6 - 0.0
31/06:00am 9.4 2.3 3.6 67 2.6 WNW 30 41 16 22 1012.7 1013.8 0.0
31/05:30am 9.5 2.5 4.1 69 2.5 WNW 30 37 16 20 1012.9 - 0.0
31/05:00am 9.3 3.5 4.3 71 2.3 NW 24 33 13 18 1013.1 - 0.0
31/04:30am 9.3 3.9 4.7 73 2.1 NW 22 30 12 16 1013.4 - 0.0
31/04:00am 8.1 4.4 4.5 78 1.6 NNW 13 17 7 9 1013.8 - 0.0
31/03:30am 8.4 4.4 4.8 78 1.7 NNW 15 19 8 10 1014.1 - 0.0
31/03:00am 8.8 4.8 5.0 77 1.8 NNW 15 20 8 11 1014.4 1015.5 0.0
31/02:30am 9.5 5.3 5.5 76 1.9 NNW 17 22 9 12 1014.7 - 0.0
31/02:00am 10.0 5.4 5.8 75 2.0 NNW 19 24 10 13 1015.1 - 0.0
31/01:30am 10.7 5.6 6.1 73 2.2 NW 22 30 12 16 1015.3 - 0.0
31/01:00am 10.5 5.9 6.5 76 1.9 NW 20 28 11 15 1015.5 - 0.0
31/12:30am 10.3 5.7 6.5 77 1.8 NW 20 26 11 14 1015.8 - 0.0
31/12:00am 10.4 6.8 6.7 78 1.8 NNW 15 20 8 11 1016.2 1017.4 0.0
 
Date/Time
EST
Temp
°C
App
Temp
°C
Dew
Point
Rel
Hum
%
Delta-T
°C
Wind Press
QNH
hPa
Press
MSL
hPa
Rain
since 9 am
mm
Dir
 
Spd
km/h
Gust
km/h
Spd
kts
Gust
kts
30/11:30pm 10.7 5.8 6.8 77 1.9 NW 22 30 12 16 1016.2 - 0.0
30/11:00pm 10.7 4.6 6.8 77 1.9 WNW 28 37 15 20 1016.3 - 0.0
30/10:30pm 10.9 4.5 6.8 76 2.0 WNW 30 39 16 21 1016.4 - 0.0
30/10:00pm 10.3 5.4 6.8 79 1.7 NW 22 30 12 16 1016.5 - 0.0
30/09:30pm 10.4 6.0 7.3 81 1.5 NW 20 30 11 16 1016.7 - 0.0
30/09:00pm 10.4 6.1 7.1 80 1.6 NW 19 28 10 15 1016.7 1017.8 0.0
30/08:30pm 10.5 6.6 7.2 80 1.6 NW 17 20 9 11 1016.9 - 0.0
30/08:00pm 11.6 5.8 7.9 78 1.9 NW 28 37 15 20 1017.1 - 0.0
30/07:30pm 11.7 5.9 8.0 78 1.9 NW 28 39 15 21 1017.2 - 0.0
30/07:00pm 11.7 6.3 8.0 78 1.9 NW 26 35 14 19 1017.0 - 0.0
30/06:30pm 11.8 6.4 7.9 77 2.0 NW 26 35 14 19 1016.9 - 0.0
30/06:00pm 12.0 6.5 7.7 75 2.2 WNW 26 39 14 21 1016.5 1017.7 0.0
30/05:30pm 12.3 6.0 7.4 72 2.5 WNW 30 43 16 23 1016.4 - 0.0
30/05:08pm 12.3 5.6 7.4 72 2.5 WNW 32 50 17 27 1016.2 - 0.0
30/05:00pm 12.4 5.5 7.1 70 2.6 WNW 33 48 18 26 1016.0 - 0.0
30/04:49pm 12.6 6.7 7.3 70 2.7 WNW 28 46 15 25 1016.1 - 0.0
30/04:30pm 12.7 5.8 7.2 69 2.8 WNW 33 48 18 26 1015.9 - 0.0
30/04:20pm 13.0 6.1 7.2 68 2.9 WNW 33 52 18 28 1015.7 - 0.0
30/04:00pm 12.9 6.2 7.4 69 2.8 WNW 32 46 17 25 1015.6 - 0.0
30/03:51pm 13.0 6.1 7.2 68 2.9 WNW 33 52 18 28 1015.6 - 0.0
30/03:30pm 13.4 5.3 7.0 65 3.2 WNW 39 50 21 27 1015.5 - 0.0
30/03:04pm 13.3 6.0 7.1 66 3.1 WNW 35 54 19 29 1016.0 - 0.0
30/03:00pm 13.3 6.3 6.9 65 3.2 WNW 33 50 18 27 1016.0 1017.1 0.0
30/02:49pm 13.3 5.6 7.3 67 3.0 WNW 37 56 20 30 1016.0 - 0.0
30/02:30pm 13.2 4.7 7.0 66 3.1 WNW 41 50 22 27 1015.9 - 0.0
30/02:11pm 13.6 5.3 7.6 67 3.1 WNW 41 59 22 32 1015.8 - 0.0
30/02:00pm 13.2 5.2 7.4 68 2.9 WNW 39 54 21 29 1016.0 - 0.0
30/01:30pm 13.3 4.4 7.5 68 2.9 WNW 44 63 24 34 1015.9 - 0.0
30/01:03pm 12.7 3.4 7.4 70 2.7 WNW 46 65 25 35 1016.4 - 0.0
30/01:00pm 12.9 3.2 7.6 70 2.7 WNW 48 65 26 35 1016.4 - 0.0
30/12:54pm 12.5 3.0 6.8 68 2.8 WNW 46 65 25 35 1016.4 - 0.0
30/12:30pm 13.5 5.1 7.3 66 3.1 WNW 41 54 22 29 1016.8 - 0.0
30/12:00pm 12.8 3.2 6.4 65 3.2 WNW 46 67 25 36 1017.0 1018.1 0.0
30/11:33am 13.2 4.4 7.4 68 2.9 WNW 43 61 23 33 1017.4 - 0.0
30/11:30am 12.8 3.7 7.0 68 2.9 WNW 44 57 24 31 1017.5 - 0.0
30/11:22am 12.8 3.8 7.3 69 2.8 WNW 44 57 24 31 1017.6 - 0.0
30/11:00am 12.5 3.6 7.6 72 2.5 WNW 44 65 24 35 1017.9 - 0.0
30/10:43am 12.6 5.4 7.5 71 2.6 WNW 35 59 19 32 1018.0 - 0.0
30/10:30am 12.3 4.4 7.8 74 2.3 WNW 39 52 21 28 1018.1 - 0.0

Other Formats:

Comma delimited format used in spreadsheet applications
http://www.bom.gov.au/fwo/IDN60801/IDN60801.95716.axf

JavaScript Object Notation format (JSON) in row-major order
http://www.bom.gov.au/fwo/IDN60801/IDN60801.95716.json